createdAt,value
2023-01-21T00:00:35.186Z,30.98
2023-01-21T00:03:01.578Z,30.23
2023-01-21T00:05:28.019Z,30.10
2023-01-21T00:07:54.406Z,28.58
2023-01-21T00:10:20.825Z,28.67
2023-01-21T00:12:47.237Z,28.27
2023-01-21T00:15:13.666Z,28.83
2023-01-21T00:17:40.099Z,28.20
2023-01-21T00:20:06.722Z,28.38
2023-01-21T00:22:33.325Z,27.08
2023-01-21T00:24:59.717Z,25.83
2023-01-21T00:27:26.097Z,26.05
2023-01-21T00:29:52.455Z,25.30
2023-01-21T00:32:19.700Z,26.40
2023-01-21T00:34:46.103Z,27.90
2023-01-21T00:37:12.574Z,25.80
2023-01-21T00:39:42.760Z,27.70
2023-01-21T00:42:12.250Z,26.77
2023-01-21T00:44:38.778Z,26.25
2023-01-21T00:47:05.738Z,26.85
2023-01-21T00:49:32.641Z,27.05
2023-01-21T00:51:59.364Z,27.05
2023-01-21T00:54:25.837Z,25.35
2023-01-21T00:56:52.199Z,27.15
2023-01-21T00:59:18.759Z,26.83
2023-01-21T01:01:45.183Z,27.27
2023-01-21T01:04:12.078Z,27.85
2023-01-21T01:06:38.436Z,25.83
2023-01-21T01:09:04.842Z,25.85
2023-01-21T01:11:31.533Z,26.77
2023-01-21T01:13:59.060Z,26.00
2023-01-21T01:16:25.788Z,25.30
2023-01-21T01:18:52.630Z,25.92
2023-01-21T01:21:20.834Z,25.55
2023-01-21T01:23:47.820Z,26.73
2023-01-21T01:26:16.241Z,25.08
2023-01-21T01:28:43.012Z,25.65
2023-01-21T01:31:12.170Z,25.15
2023-01-21T01:33:38.570Z,24.20
2023-01-21T01:36:08.545Z,23.50
2023-01-21T01:38:35.462Z,24.00
2023-01-21T01:41:01.917Z,24.85
2023-01-21T01:43:50.791Z,24.70
2023-01-21T01:46:17.527Z,25.38
2023-01-21T01:48:54.075Z,25.05
2023-01-21T01:51:23.788Z,25.98
2023-01-21T01:53:51.784Z,26.48
2023-01-21T01:56:18.178Z,26.70
2023-01-21T01:58:45.676Z,28.30
2023-01-21T02:01:12.161Z,28.58
2023-01-21T02:03:46.311Z,30.52
2023-01-21T02:06:14.605Z,30.50
2023-01-21T02:08:41.347Z,31.05
2023-01-21T02:11:12.647Z,31.27
2023-01-21T02:13:40.404Z,31.80
2023-01-21T02:16:18.720Z,31.30
2023-01-21T02:19:05.747Z,32.22
2023-01-21T02:22:07.206Z,32.92
2023-01-21T02:25:01.293Z,34.13
2023-01-21T02:27:51.879Z,35.17
2023-01-21T02:30:24.261Z,36.90
2023-01-21T02:35:43.694Z,35.58
2023-01-21T02:38:25.232Z,38.58
2023-01-21T02:41:19.607Z,39.67
2023-01-21T02:44:05.063Z,40.72
2023-01-21T02:46:40.153Z,41.58
2023-01-21T02:49:12.824Z,43.75
2023-01-21T02:51:39.239Z,42.28
2023-01-21T02:54:34.042Z,45.08
2023-01-21T02:57:00.467Z,43.83
2023-01-21T02:59:26.939Z,43.30
2023-01-21T03:01:59.228Z,45.30
2023-01-21T03:04:50.504Z,44.10
2023-01-21T03:07:30.867Z,44.80
2023-01-21T03:10:01.911Z,45.83
2023-01-21T03:12:43.914Z,44.53
2023-01-21T03:15:42.157Z,47.00
2023-01-21T03:18:45.733Z,43.60
2023-01-21T03:21:15.737Z,43.50
2023-01-21T03:23:44.854Z,43.75
2023-01-21T03:26:13.599Z,44.55
2023-01-21T03:28:45.709Z,46.42
2023-01-21T03:31:20.704Z,46.78
2023-01-21T03:33:48.230Z,44.78
2023-01-21T03:36:40.805Z,46.17
2023-01-21T03:39:13.915Z,44.22
2023-01-21T03:41:40.510Z,45.70
2023-01-21T03:44:07.252Z,45.67
2023-01-21T03:46:40.680Z,48.03
2023-01-21T03:49:13.541Z,46.30
2023-01-21T03:51:42.504Z,46.95
2023-01-21T03:54:08.999Z,48.40
2023-01-21T03:56:35.417Z,47.35
2023-01-21T03:59:01.829Z,46.45
2023-01-21T04:01:28.229Z,47.92
2023-01-21T04:03:54.716Z,47.92
2023-01-21T04:06:22.814Z,46.50
2023-01-21T04:08:49.227Z,46.90
2023-01-21T04:11:15.881Z,46.40
2023-01-21T04:13:42.275Z,47.90
2023-01-21T04:16:09.179Z,44.72
2023-01-21T04:18:35.695Z,47.03
2023-01-21T04:21:02.345Z,48.90
2023-01-21T04:23:28.739Z,49.28
2023-01-21T04:25:55.211Z,47.95
2023-01-21T04:28:21.606Z,48.88
2023-01-21T04:30:48.293Z,48.15
2023-01-21T04:33:15.019Z,47.95
2023-01-21T04:35:41.433Z,47.25
2023-01-21T04:38:07.844Z,48.28
2023-01-21T04:40:34.429Z,47.55
2023-01-21T04:43:00.824Z,46.00
2023-01-21T04:45:27.238Z,46.38
2023-01-21T04:47:53.611Z,46.35
2023-01-21T04:50:20.013Z,47.10
2023-01-21T04:52:46.422Z,46.30
2023-01-21T04:55:12.809Z,47.53
2023-01-21T04:57:39.277Z,47.80
2023-01-21T05:00:06.860Z,47.75
2023-01-21T05:02:33.730Z,47.42
2023-01-21T05:05:00.195Z,44.85
2023-01-21T05:07:26.716Z,46.13
2023-01-21T05:09:53.110Z,48.30
2023-01-21T05:12:19.834Z,46.72
2023-01-21T05:14:46.191Z,46.55
2023-01-21T05:17:12.600Z,48.03
2023-01-21T05:19:38.982Z,44.80
2023-01-21T05:22:05.409Z,45.65
2023-01-21T05:24:31.806Z,43.83
2023-01-21T05:26:58.219Z,41.47
2023-01-21T05:29:24.583Z,43.55
2023-01-21T05:31:51.075Z,42.47
2023-01-21T05:34:17.693Z,42.42
2023-01-21T05:36:44.146Z,43.08
2023-01-21T05:39:10.560Z,43.47
2023-01-21T05:41:37.008Z,42.92
2023-01-21T05:44:03.391Z,41.80
2023-01-21T05:46:29.778Z,43.40
2023-01-21T05:48:56.168Z,43.95
2023-01-21T05:51:22.718Z,43.38
2023-01-21T05:53:49.163Z,43.95
2023-01-21T05:56:15.545Z,44.58
2023-01-21T05:58:42.082Z,44.08
2023-01-21T06:01:08.458Z,43.35
2023-01-21T06:03:35.690Z,43.10
2023-01-21T06:06:02.121Z,45.20
2023-01-21T06:08:28.480Z,42.50
2023-01-21T06:10:56.283Z,43.28
2023-01-21T06:13:23.471Z,42.25
2023-01-21T06:15:50.243Z,43.00
2023-01-21T06:18:16.704Z,43.40
2023-01-21T06:20:43.094Z,43.05
2023-01-21T06:23:09.535Z,42.03
2023-01-21T06:25:35.927Z,43.42
2023-01-21T06:28:02.351Z,42.65
2023-01-21T06:30:28.846Z,41.30
2023-01-21T06:32:55.219Z,43.53
2023-01-21T06:35:21.747Z,41.70
2023-01-21T06:37:48.138Z,42.25
2023-01-21T06:40:15.178Z,42.30
2023-01-21T06:42:41.782Z,40.83
2023-01-21T06:45:09.040Z,40.40
2023-01-21T06:47:35.443Z,40.90
2023-01-21T06:50:01.805Z,40.33
2023-01-21T06:52:28.531Z,41.75
2023-01-21T06:54:54.938Z,40.25
2023-01-21T06:57:21.508Z,43.60
2023-01-21T06:59:47.945Z,42.60
2023-01-21T07:02:15.924Z,43.17
2023-01-21T07:04:42.412Z,42.15
2023-01-21T07:07:08.871Z,44.58
2023-01-21T07:09:35.318Z,44.00
2023-01-21T07:12:01.693Z,44.83
2023-01-21T07:14:28.217Z,45.67
2023-01-21T07:16:54.679Z,45.95
2023-01-21T07:19:21.049Z,44.55
2023-01-21T07:21:47.570Z,45.95
2023-01-21T07:24:13.945Z,45.10
2023-01-21T07:26:41.517Z,45.85
2023-01-21T07:29:08.504Z,46.78
2023-01-21T07:31:34.998Z,45.58
2023-01-21T07:34:01.717Z,44.45
2023-01-21T07:36:28.259Z,45.00
2023-01-21T07:38:55.046Z,45.40
2023-01-21T07:41:21.607Z,45.70
2023-01-21T07:43:48.654Z,47.33
2023-01-21T07:46:19.565Z,45.90
2023-01-21T07:48:52.378Z,44.35
2023-01-21T07:51:19.551Z,46.25
2023-01-21T07:53:46.127Z,46.15
2023-01-21T07:56:12.760Z,48.22
2023-01-21T07:58:39.175Z,48.22
2023-01-21T08:01:09.235Z,46.78
2023-01-21T08:03:36.492Z,46.58
2023-01-21T08:06:03.717Z,46.60
2023-01-21T08:08:30.162Z,48.00
2023-01-21T08:10:56.823Z,47.00
2023-01-21T08:13:23.910Z,48.78
2023-01-21T08:15:51.317Z,45.88
2023-01-21T08:18:18.220Z,48.85
2023-01-21T08:20:44.765Z,49.47
2023-01-21T08:23:11.432Z,49.20
2023-01-21T08:25:38.345Z,48.35
2023-01-21T08:28:04.987Z,50.17
2023-01-21T08:30:31.408Z,48.97
2023-01-21T08:32:58.063Z,50.92
2023-01-21T08:35:24.545Z,52.35
2023-01-21T08:37:50.964Z,53.25
2023-01-21T08:40:17.374Z,50.95
2023-01-21T08:42:43.812Z,53.80
2023-01-21T08:45:10.494Z,52.42
2023-01-21T08:47:36.901Z,51.67
2023-01-21T08:50:03.445Z,53.28
2023-01-21T08:52:29.883Z,53.13
2023-01-21T08:54:56.250Z,52.65
2023-01-21T08:57:22.627Z,52.42
2023-01-21T08:59:49.079Z,51.83
2023-01-21T09:02:15.673Z,52.13
2023-01-21T09:04:42.072Z,52.22
2023-01-21T09:07:08.479Z,52.10
2023-01-21T09:09:34.987Z,51.78
2023-01-21T09:12:01.428Z,50.58
2023-01-21T09:14:28.920Z,51.65
2023-01-21T09:16:55.898Z,49.65
2023-01-21T09:19:23.794Z,47.60
2023-01-21T09:21:52.402Z,47.75
2023-01-21T09:24:18.838Z,49.97
2023-01-21T09:26:45.294Z,48.58
2023-01-21T09:29:11.700Z,46.03
2023-01-21T09:31:38.217Z,46.85
2023-01-21T09:34:05.753Z,47.85
2023-01-21T09:36:34.429Z,49.30
2023-01-21T09:39:00.898Z,49.10
2023-01-21T09:41:40.077Z,47.63
2023-01-21T09:44:13.256Z,46.92
2023-01-21T09:47:03.700Z,46.60
2023-01-21T09:49:32.307Z,50.72
2023-01-21T09:52:23.361Z,50.63
2023-01-21T09:54:49.761Z,50.92
2023-01-21T09:57:26.390Z,48.17
2023-01-21T10:00:18.075Z,50.85
2023-01-21T10:02:53.334Z,52.05
2023-01-21T10:05:33.933Z,49.45
2023-01-21T10:08:16.869Z,48.35
2023-01-21T10:10:50.477Z,49.28
2023-01-21T10:13:37.423Z,47.35
2023-01-21T10:16:09.340Z,48.33
2023-01-21T10:18:38.224Z,50.15
2023-01-21T10:21:13.616Z,48.55
2023-01-21T10:23:43.885Z,47.03
2023-01-21T10:26:12.927Z,48.88
2023-01-21T10:28:42.438Z,49.60
2023-01-21T10:31:18.810Z,48.28
2023-01-21T10:33:45.266Z,47.67
2023-01-21T10:36:48.565Z,47.75
2023-01-21T10:39:24.206Z,44.33
2023-01-21T10:42:14.724Z,45.95
2023-01-21T10:44:59.638Z,44.15
2023-01-21T10:47:56.457Z,42.05
2023-01-21T10:50:30.656Z,43.22
2023-01-21T10:53:06.380Z,42.35
2023-01-21T10:55:55.026Z,40.95
2023-01-21T10:58:28.846Z,40.95
2023-01-21T11:00:58.271Z,39.15
2023-01-21T11:03:38.856Z,38.15
2023-01-21T11:06:08.403Z,36.17
2023-01-21T11:08:35.278Z,35.80
2023-01-21T11:11:02.950Z,35.72
2023-01-21T11:13:29.375Z,31.92
2023-01-21T11:15:57.053Z,32.55
2023-01-21T11:18:34.188Z,30.85
2023-01-21T11:21:20.525Z,28.52
2023-01-21T11:23:57.356Z,29.42
2023-01-21T11:26:27.781Z,28.75
2023-01-21T11:29:16.945Z,28.90
2023-01-21T11:32:05.894Z,29.40
2023-01-21T11:34:33.258Z,29.40
2023-01-21T11:37:03.887Z,31.05
2023-01-21T11:39:33.403Z,30.00
2023-01-21T11:42:07.347Z,31.05
2023-01-21T11:44:34.621Z,32.97
2023-01-21T11:47:01.188Z,33.55
2023-01-21T11:49:31.890Z,31.58
2023-01-21T11:52:18.906Z,30.80
2023-01-21T11:54:45.688Z,31.75
2023-01-21T11:57:27.421Z,28.27
2023-01-21T11:59:57.373Z,23.13
2023-01-21T12:02:30.038Z,29.77
2023-01-21T12:05:03.673Z,29.85
2023-01-21T12:07:36.344Z,28.85
2023-01-21T12:10:11.741Z,27.63
2023-01-21T12:12:57.684Z,26.42
2023-01-21T12:16:20.116Z,25.95
2023-01-21T12:18:51.837Z,25.15
2023-01-21T12:21:41.469Z,25.42
2023-01-21T12:24:49.894Z,26.27
2023-01-21T12:27:24.718Z,23.65
2023-01-21T12:30:02.827Z,25.13
2023-01-21T12:32:29.796Z,22.23
2023-01-21T12:35:00.584Z,20.77
2023-01-21T12:37:42.817Z,20.75
2023-01-21T12:40:16.660Z,21.00
2023-01-21T12:42:47.474Z,20.60
2023-01-21T12:45:18.032Z,22.17
2023-01-21T12:47:50.465Z,23.00
2023-01-21T12:50:28.536Z,22.42
2023-01-21T12:53:20.858Z,21.92
2023-01-21T12:56:19.660Z,23.08
2023-01-21T12:58:52.367Z,22.10
2023-01-21T13:01:45.146Z,22.08
2023-01-21T13:06:54.213Z,22.05
2023-01-21T13:09:46.408Z,21.55
2023-01-21T13:12:25.605Z,21.23
2023-01-21T13:15:13.719Z,20.95
2023-01-21T13:17:42.896Z,21.33
2023-01-21T13:20:18.272Z,18.00
2023-01-21T13:23:08.269Z,20.23
2023-01-21T13:25:53.217Z,17.95
2023-01-21T13:28:29.106Z,18.05
2023-01-21T13:31:14.301Z,17.95
2023-01-21T13:33:49.507Z,18.52
2023-01-21T13:36:40.287Z,18.08
2023-01-21T13:39:31.373Z,17.27
2023-01-21T13:42:25.338Z,15.95
2023-01-21T13:45:19.002Z,15.52
2023-01-21T13:48:16.864Z,16.00
2023-01-21T13:51:04.638Z,15.75
2023-01-21T13:53:33.978Z,15.73
2023-01-21T13:56:15.320Z,15.90
2023-01-21T13:58:48.353Z,16.33
2023-01-21T14:01:35.674Z,16.35
2023-01-21T14:04:33.298Z,15.73
2023-01-21T14:07:14.781Z,15.90
2023-01-21T14:09:46.694Z,14.95
2023-01-21T14:12:39.265Z,18.33
2023-01-21T14:15:53.411Z,17.15
2023-01-21T14:18:39.229Z,16.23
2023-01-21T14:21:10.885Z,15.65
2023-01-21T14:23:59.321Z,17.33
2023-01-21T14:26:30.287Z,15.38
2023-01-21T14:29:06.813Z,15.98
2023-01-21T14:31:38.260Z,16.27
2023-01-21T14:34:16.183Z,16.90
2023-01-21T14:37:02.867Z,17.05
2023-01-21T14:39:37.977Z,16.55
2023-01-21T14:42:04.223Z,18.33
2023-01-21T14:44:45.169Z,18.90
2023-01-21T14:47:16.791Z,19.88
2023-01-21T14:49:53.559Z,19.80
2023-01-21T14:52:31.005Z,20.58
2023-01-21T14:54:57.642Z,19.67
2023-01-21T14:57:37.254Z,19.65
2023-01-21T15:00:21.504Z,19.70
2023-01-21T15:02:53.438Z,19.73
2023-01-21T15:05:28.037Z,20.05
2023-01-21T15:08:13.244Z,19.73
2023-01-21T15:10:40.697Z,20.33
2023-01-21T15:13:37.427Z,20.08
2023-01-21T15:16:05.206Z,20.90
2023-01-21T15:18:45.255Z,20.45
2023-01-21T15:21:35.101Z,20.85
2023-01-21T15:24:35.575Z,19.90
2023-01-21T15:27:22.217Z,20.73
2023-01-21T15:29:54.584Z,21.17
2023-01-21T15:32:28.156Z,20.60
2023-01-21T15:35:00.636Z,20.52
2023-01-21T15:40:01.730Z,19.65
2023-01-21T15:42:47.523Z,20.35
2023-01-21T15:45:23.547Z,20.45
2023-01-21T15:48:36.435Z,20.65
2023-01-21T15:51:34.539Z,19.95
2023-01-21T15:54:19.301Z,20.50
2023-01-21T15:56:54.651Z,19.45
2023-01-21T15:59:37.949Z,20.25
2023-01-21T16:02:15.225Z,22.02
2023-01-21T16:04:50.133Z,20.65
2023-01-21T16:07:31.090Z,20.48
2023-01-21T16:10:34.263Z,18.95
2023-01-21T16:13:03.463Z,19.60
2023-01-21T16:16:07.566Z,18.25
2023-01-21T16:18:53.927Z,18.05
2023-01-21T16:21:23.503Z,17.90
2023-01-21T16:23:51.847Z,17.63
2023-01-21T16:26:31.873Z,15.93
2023-01-21T16:28:59.301Z,16.35
2023-01-21T16:31:25.791Z,16.73
2023-01-21T16:33:53.597Z,16.42
2023-01-21T16:36:20.082Z,16.70
2023-01-21T16:38:47.015Z,17.75
2023-01-21T16:41:13.754Z,18.23
2023-01-21T16:43:49.576Z,19.15
2023-01-21T16:46:23.982Z,18.90
2023-01-21T16:48:52.274Z,20.30
2023-01-21T16:51:24.607Z,21.77
2023-01-21T16:54:14.629Z,22.85
2023-01-21T16:56:54.458Z,24.73
2023-01-21T16:59:25.969Z,23.85
2023-01-21T17:01:52.848Z,24.55
2023-01-21T17:04:19.324Z,24.50
2023-01-21T17:06:46.269Z,25.33
2023-01-21T17:09:25.474Z,24.30
2023-01-21T17:11:52.120Z,24.38
2023-01-21T17:14:23.157Z,26.80
2023-01-21T17:16:49.770Z,26.77
2023-01-21T17:19:37.225Z,27.65
2023-01-21T17:22:14.401Z,28.50
2023-01-21T17:24:49.348Z,26.67
2023-01-21T17:27:18.500Z,26.83
2023-01-21T17:29:45.554Z,25.00
2023-01-21T17:32:26.786Z,27.40
2023-01-21T17:35:16.945Z,27.20
2023-01-21T17:37:44.998Z,26.20
2023-01-21T17:40:41.598Z,26.80
2023-01-21T17:43:19.140Z,24.77
2023-01-21T17:45:46.560Z,25.42
2023-01-21T17:48:33.015Z,26.20
2023-01-21T17:51:14.608Z,25.73
2023-01-21T17:53:52.454Z,28.00
2023-01-21T17:56:39.935Z,25.13
2023-01-21T17:59:34.548Z,24.58
2023-01-21T18:02:02.076Z,26.05
2023-01-21T18:04:28.972Z,26.20
2023-01-21T18:06:55.707Z,26.50
2023-01-21T18:09:23.412Z,25.45
2023-01-21T18:11:52.203Z,26.13
2023-01-21T18:14:21.927Z,23.58
2023-01-21T18:16:48.411Z,25.08
2023-01-21T18:19:32.893Z,23.63
2023-01-21T18:22:00.402Z,23.95
2023-01-21T18:24:26.979Z,22.80
2023-01-21T18:26:53.802Z,21.75
2023-01-21T18:29:21.713Z,23.55
2023-01-21T18:31:50.618Z,23.52
2023-01-21T18:34:17.053Z,23.52
2023-01-21T18:36:43.503Z,23.60
2023-01-21T18:39:12.116Z,23.45
2023-01-21T18:41:38.547Z,23.73
2023-01-21T18:44:05.013Z,23.75
2023-01-21T18:46:31.533Z,22.83
2023-01-21T18:48:57.911Z,24.00
2023-01-21T18:51:24.363Z,24.65
2023-01-21T18:53:50.819Z,23.58
2023-01-21T18:56:17.190Z,22.67
2023-01-21T18:58:43.610Z,24.42
2023-01-21T19:01:22.501Z,23.58
2023-01-21T19:03:52.460Z,24.13
2023-01-21T19:06:18.901Z,24.38
2023-01-21T19:08:46.033Z,24.80
2023-01-21T19:11:13.856Z,25.10
2023-01-21T19:13:40.255Z,24.73
2023-01-21T19:16:13.150Z,25.10
2023-01-21T19:18:39.575Z,24.25
2023-01-21T19:21:08.079Z,25.23
2023-01-21T19:23:35.702Z,25.35
2023-01-21T19:26:02.232Z,24.67
2023-01-21T19:28:28.700Z,24.65
2023-01-21T19:30:55.518Z,25.08
2023-01-21T19:33:23.218Z,25.35
2023-01-21T19:35:50.231Z,27.17
2023-01-21T19:38:18.911Z,26.55
2023-01-21T19:40:46.592Z,25.73
2023-01-21T19:43:14.343Z,26.10
2023-01-21T19:45:41.063Z,27.55
2023-01-21T19:48:12.868Z,27.40
2023-01-21T19:50:39.371Z,28.30
2023-01-21T19:53:06.057Z,26.20
2023-01-21T19:55:34.472Z,25.92
2023-01-21T19:58:05.092Z,26.90
2023-01-21T20:00:36.355Z,27.58
2023-01-21T20:03:02.805Z,26.70
2023-01-21T20:05:33.586Z,26.98
2023-01-21T20:08:01.346Z,25.83
2023-01-21T20:10:29.287Z,26.55
2023-01-21T20:12:56.071Z,27.77
2023-01-21T20:15:28.165Z,25.88
2023-01-21T20:17:55.352Z,27.77
2023-01-21T20:20:24.869Z,26.75
2023-01-21T20:22:51.325Z,27.88
2023-01-21T20:25:35.502Z,27.00
2023-01-21T20:28:08.346Z,27.92
2023-01-21T20:30:34.785Z,27.13
2023-01-21T20:33:01.787Z,27.30
2023-01-21T20:35:28.157Z,28.02
2023-01-21T20:37:55.989Z,26.90
2023-01-21T20:40:27.319Z,28.30
2023-01-21T20:42:54.765Z,25.77
2023-01-21T20:45:30.237Z,26.10
2023-01-21T20:47:58.877Z,26.80
2023-01-21T20:50:37.351Z,25.58
2023-01-21T20:53:03.916Z,26.08
2023-01-21T20:55:30.906Z,25.27
2023-01-21T20:57:57.633Z,25.02
2023-01-21T21:00:29.023Z,25.27
2023-01-21T21:02:55.603Z,25.42
2023-01-21T21:05:22.404Z,25.27
2023-01-21T21:07:48.814Z,24.77
2023-01-21T21:10:22.009Z,23.92
2023-01-21T21:12:49.115Z,23.50
2023-01-21T21:15:16.732Z,23.23
2023-01-21T21:17:43.846Z,23.83
2023-01-21T21:20:23.319Z,23.23
2023-01-21T21:22:49.738Z,21.83
2023-01-21T21:25:19.266Z,21.25
2023-01-21T21:27:46.089Z,21.67
2023-01-21T21:30:16.548Z,21.35
2023-01-21T21:32:43.159Z,20.83
2023-01-21T21:35:29.084Z,21.30
2023-01-21T21:37:57.744Z,20.27
2023-01-21T21:40:25.998Z,20.63
2023-01-21T21:43:11.045Z,20.88
2023-01-21T21:45:37.458Z,20.00
2023-01-21T21:48:22.816Z,20.38
2023-01-21T21:50:56.669Z,19.23
2023-01-21T21:53:23.595Z,18.70
2023-01-21T21:55:50.031Z,19.48
2023-01-21T21:58:16.398Z,19.30
2023-01-21T22:00:42.830Z,18.60
2023-01-21T22:03:10.763Z,17.50
2023-01-21T22:05:37.641Z,17.52
2023-01-21T22:08:04.089Z,17.25
2023-01-21T22:10:30.487Z,17.90
2023-01-21T22:12:56.855Z,16.90
2023-01-21T22:15:23.298Z,17.33
2023-01-21T22:17:49.662Z,17.58
2023-01-21T22:20:16.048Z,17.42
2023-01-21T22:22:42.410Z,15.45
2023-01-21T22:25:11.946Z,17.48
2023-01-21T22:27:38.314Z,17.88
2023-01-21T22:30:05.239Z,16.50
2023-01-21T22:32:31.640Z,17.73
2023-01-21T22:34:58.045Z,18.35
2023-01-21T22:37:24.447Z,17.15
2023-01-21T22:39:50.960Z,16.20
2023-01-21T22:42:17.623Z,16.83
2023-01-21T22:44:44.018Z,16.77
2023-01-21T22:47:10.559Z,15.98
2023-01-21T22:49:37.020Z,16.60
2023-01-21T22:52:03.477Z,16.67
2023-01-21T22:54:29.846Z,16.75
2023-01-21T22:56:56.244Z,16.27
2023-01-21T22:59:22.624Z,17.08
2023-01-21T23:01:50.933Z,17.02
2023-01-21T23:04:17.716Z,16.85
2023-01-21T23:06:44.737Z,15.02
2023-01-21T23:09:15.137Z,16.63
2023-01-21T23:11:42.025Z,15.75
2023-01-21T23:14:09.709Z,15.73
2023-01-21T23:16:36.213Z,15.75
2023-01-21T23:19:02.682Z,16.13
2023-01-21T23:21:29.059Z,19.50
2023-01-21T23:23:55.499Z,16.27
2023-01-21T23:26:22.647Z,14.52
2023-01-21T23:28:49.174Z,15.57
2023-01-21T23:31:17.136Z,15.25
2023-01-21T23:33:43.800Z,14.13
2023-01-21T23:36:12.805Z,14.73
2023-01-21T23:38:39.892Z,13.63
2023-01-21T23:41:07.183Z,16.05
2023-01-21T23:43:33.707Z,13.48
2023-01-21T23:46:00.142Z,17.05
2023-01-21T23:48:26.573Z,15.82
2023-01-21T23:50:52.962Z,15.77
2023-01-21T23:53:19.440Z,15.45
2023-01-21T23:55:45.851Z,15.98
2023-01-21T23:58:12.258Z,15.45
